Time;durP1;ratioP1;P1;durP2;ratioP2;P2;SDS_P1;SDS_P2;PMS_P1;PMS_P2;Temp;Humidity;BMP_temperature;BMP_pressure;BME280_temperature;BME280_humidity;BME280_pressure;Samples;Min_cycle;Max_cycle;Signal;HPM_P1;HPM_P2
2023/08/11 00:00:23;;;;;;;;;5.00;4.75;;;;;-143.47;100.00;63865.75;2097402;27;46357;-60
2023/08/11 00:01:24;;;;;;;;;5.25;5.25;;;;;-143.47;100.00;63865.75;2100425;28;46743;-61
2023/08/11 00:02:25;;;;;;;;;7.20;6.40;;;;;-143.47;100.00;63865.75;2096858;28;46593;-60
2023/08/11 00:03:26;;;;;;;;;7.40;6.80;;;;;-143.47;100.00;63865.75;2104936;28;46718;-61
2023/08/11 00:04:26;;;;;;;;;6.00;6.00;;;;;-143.47;100.00;63865.75;2104580;28;47061;-59
2023/08/11 00:05:28;;;;;;;;;6.00;6.00;;;;;-143.47;100.00;63865.75;2096721;28;46669;-62
2023/08/11 00:06:28;;;;;;;;;6.20;5.00;;;;;-143.47;100.00;63865.75;2100123;28;46641;-60
2023/08/11 00:07:28;;;;;;;;;5.75;5.75;;;;;-143.47;100.00;63865.75;2098773;28;46540;-60
2023/08/11 00:08:29;;;;;;;;;8.25;6.00;;;;;-143.47;100.00;63865.75;2098942;28;46605;-60
2023/08/11 00:09:29;;;;;;;;;5.00;5.00;;;;;-143.47;100.00;63865.75;2101854;27;46707;-59
2023/08/11 00:10:29;;;;;;;;;5.75;5.00;;;;;-143.47;100.00;63865.75;2097884;28;46269;-59
2023/08/11 00:11:30;;;;;;;;;5.00;5.00;;;;;-143.47;100.00;63865.75;2105172;27;46256;-60
2023/08/11 00:12:31;;;;;;;;;6.00;6.00;;;;;-143.47;100.00;63865.75;2100027;28;45849;-59
2023/08/11 00:13:31;;;;;;;;;5.00;5.00;;;;;-143.47;100.00;63865.75;2096597;28;46546;-59
2023/08/11 00:14:32;;;;;;;;;4.75;4.75;;;;;-143.47;100.00;63865.75;2101761;28;46337;-59
2023/08/11 00:15:37;;;;;;;;;6.00;5.75;;;;;-143.47;100.00;63865.75;2103110;27;45506;-60
2023/08/11 00:16:38;;;;;;;;;4.80;4.80;;;;;-143.47;100.00;63865.75;2096590;28;46629;-59
2023/08/11 00:17:39;;;;;;;;;5.50;5.50;;;;;-143.47;100.00;63865.75;2097296;28;46883;-60
2023/08/11 00:18:42;;;;;;;;;5.00;5.00;;;;;-143.47;100.00;63865.75;2096403;28;46748;-60
2023/08/11 00:19:42;;;;;;;;;5.00;5.00;;;;;-143.47;100.00;63865.75;2097229;28;46529;-60
2023/08/11 00:20:43;;;;;;;;;7.00;7.00;;;;;-143.47;100.00;63865.75;2097897;28;46097;-59
2023/08/11 00:21:43;;;;;;;;;7.25;5.75;;;;;-143.47;100.00;63865.75;2096749;28;46704;-60
2023/08/11 00:22:43;;;;;;;;;6.00;6.00;;;;;-143.47;100.00;63865.75;2098231;28;46845;-60
2023/08/11 00:23:44;;;;;;;;;6.00;6.00;;;;;-143.47;100.00;63865.75;2097015;28;46266;-60
2023/08/11 00:24:45;;;;;;;;;7.20;6.00;;;;;-143.47;100.00;63865.75;2097962;27;46704;-60
2023/08/11 00:25:45;;;;;;;;;6.00;6.00;;;;;-143.47;100.00;63865.75;2098587;28;46616;-60
2023/08/11 00:26:45;;;;;;;;;8.50;6.75;;;;;-143.47;100.00;63865.75;2097179;28;46233;-60
2023/08/11 00:27:46;;;;;;;;;6.00;4.75;;;;;-143.47;100.00;63865.75;2098168;28;46190;-60
2023/08/11 00:28:46;;;;;;;;;5.75;5.75;;;;;-143.47;100.00;63865.75;2098267;28;46216;-59
2023/08/11 00:29:46;;;;;;;;;7.00;7.00;;;;;-143.47;100.00;63865.75;2096656;28;46595;-60
2023/08/11 00:30:46;;;;;;;;;6.50;5.00;;;;;-143.47;100.00;63865.75;2098358;28;46703;-60
2023/08/11 00:31:48;;;;;;;;;4.75;4.75;;;;;-143.47;100.00;63865.75;2097116;28;46265;-60
2023/08/11 00:32:48;;;;;;;;;5.00;5.00;;;;;-143.47;100.00;63865.75;2100725;27;46684;-60
2023/08/11 00:33:51;;;;;;;;;6.75;6.75;;;;;-143.47;100.00;63865.75;2103174;27;46368;-60
2023/08/11 00:34:52;;;;;;;;;6.80;6.20;;;;;-143.47;100.00;63865.75;2096636;28;46242;-60
2023/08/11 00:35:52;;;;;;;;;5.00;5.00;;;;;-143.47;100.00;63865.75;2102759;28;46655;-60
2023/08/11 00:36:55;;;;;;;;;5.25;5.25;;;;;-143.47;100.00;63865.75;2097652;28;46528;-60
2023/08/11 00:37:55;;;;;;;;;5.00;5.00;;;;;-143.47;100.00;63865.75;2096575;28;46625;-60
2023/08/11 00:39:00;;;;;;;;;6.00;5.75;;;;;-143.47;100.00;63865.75;2096718;28;47075;-61
2023/08/11 00:40:00;;;;;;;;;5.40;5.40;;;;;-143.47;100.00;63865.75;2096319;28;46985;-60
2023/08/11 00:41:01;;;;;;;;;7.25;6.00;;;;;-143.47;100.00;63865.75;2096903;28;46593;-60
2023/08/11 00:42:02;;;;;;;;;7.00;7.00;;;;;-143.47;100.00;63865.75;2097035;28;46895;-59
2023/08/11 00:43:03;;;;;;;;;6.75;6.75;;;;;-143.47;100.00;63865.75;2096410;28;45555;-60
2023/08/11 00:44:03;;;;;;;;;5.25;5.25;;;;;-143.47;100.00;63865.75;2097025;28;46634;-60
2023/08/11 00:45:05;;;;;;;;;6.00;5.25;;;;;-143.47;100.00;63865.75;2097501;28;46462;-61
2023/08/11 00:46:13;;;;;;;;;5.00;5.00;;;;;-143.47;100.00;63865.75;2096849;28;46695;-61
2023/08/11 00:47:13;;;;;;;;;6.00;5.40;;;;;-143.47;100.00;63865.75;2104339;28;46905;-62
2023/08/11 00:48:14;;;;;;;;;6.00;6.00;;;;;-143.47;100.00;63865.75;2105046;27;46781;-61
2023/08/11 00:49:14;;;;;;;;;6.00;6.00;;;;;-143.47;100.00;63865.75;2105115;27;46404;-61
2023/08/11 00:50:16;;;;;;;;;4.00;4.00;;;;;-143.47;100.00;63865.75;2101691;28;46655;-62
2023/08/11 00:51:18;;;;;;;;;6.00;6.00;;;;;-143.47;100.00;63865.75;2096368;28;46563;-61
2023/08/11 00:52:19;;;;;;;;;4.60;4.60;;;;;-143.47;100.00;63865.75;2104661;27;46397;-60
2023/08/11 00:53:19;;;;;;;;;5.25;5.25;;;;;-143.47;100.00;63865.75;2104619;27;46460;-61
2023/08/11 00:54:21;;;;;;;;;5.50;4.75;;;;;-143.47;100.00;63865.75;2104357;27;46504;-61
2023/08/11 00:55:21;;;;;;;;;6.00;6.00;;;;;-143.47;100.00;63865.75;2104595;27;46759;-61
2023/08/11 00:56:22;;;;;;;;;5.25;5.25;;;;;-143.47;100.00;63865.75;2099198;27;46448;-60
2023/08/11 00:57:23;;;;;;;;;5.00;5.00;;;;;-143.47;100.00;63865.75;2097144;28;46298;-60
2023/08/11 00:58:23;;;;;;;;;4.50;4.50;;;;;-143.47;100.00;63865.75;2099445;27;46470;-62
2023/08/11 00:59:24;;;;;;;;;5.50;5.50;;;;;-143.47;100.00;63865.75;2109191;27;46826;-60
2023/08/11 01:00:24;;;;;;;;;6.33;6.00;;;;;-143.47;100.00;63865.75;2108728;27;46236;-61
2023/08/11 01:01:25;;;;;;;;;5.00;5.00;;;;;-143.47;100.00;63865.75;2095822;28;46769;-58
2023/08/11 01:02:25;;;;;;;;;5.50;5.50;;;;;-143.47;100.00;63865.75;2095516;28;46683;-61
2023/08/11 01:03:26;;;;;;;;;5.50;5.50;;;;;-143.47;100.00;63865.75;2095954;28;46306;-60
2023/08/11 01:04:26;;;;;;;;;7.25;7.25;;;;;-143.47;100.00;63865.75;2095963;28;46374;-60
2023/08/11 01:05:34;;;;;;;;;6.25;5.50;;;;;-143.47;100.00;63865.75;2095084;28;46423;-60
2023/08/11 01:06:58;;;;;;;;;4.80;4.80;;;;;-143.47;100.00;63865.75;2094341;28;46568;-60
2023/08/11 01:08:15;;;;;;;;;5.00;5.00;;;;;-143.47;100.00;63865.75;2094982;28;47062;-60
2023/08/11 01:09:35;;;;;;;;;4.75;4.50;;;;;-143.47;100.00;63865.75;2095048;28;46859;-59
2023/08/11 01:11:10;;;;;;;;;4.50;4.50;;;;;-143.47;100.00;63865.75;2095460;28;46293;-61
2023/08/11 01:12:38;;;;;;;;;4.25;4.25;;;;;-143.47;100.00;63865.75;2098143;28;46984;-61
2023/08/11 01:13:45;;;;;;;;;5.00;5.00;;;;;-143.47;100.00;63865.75;2097772;28;46028;-61
2023/08/11 01:14:52;;;;;;;;;4.50;3.00;;;;;-143.47;100.00;63865.75;2096481;28;46127;-60
2023/08/11 01:15:52;;;;;;;;;5.00;5.00;;;;;-143.47;100.00;63865.75;2095394;28;46728;-60
2023/08/11 01:16:55;;;;;;;;;4.00;4.00;;;;;-143.47;100.00;63865.75;2097697;28;46278;-60
2023/08/11 01:17:56;;;;;;;;;5.00;5.00;;;;;-143.47;100.00;63865.75;2100969;28;46735;-59
2023/08/11 01:18:58;;;;;;;;;4.75;4.75;;;;;-143.47;100.00;63865.75;2100834;27;46462;-60
2023/08/11 01:19:59;;;;;;;;;3.75;3.75;;;;;-143.47;100.00;63865.75;2096987;28;46766;-60
2023/08/11 01:21:06;;;;;;;;;4.75;4.75;;;;;-143.47;100.00;63865.75;2097270;27;46834;-58
2023/08/11 01:22:13;;;;;;;;;4.00;4.00;;;;;-143.47;100.00;63865.75;2096527;28;46142;-60
2023/08/11 01:23:19;;;;;;;;;6.00;5.00;;;;;-143.47;100.00;63865.75;2096732;28;47098;-60
2023/08/11 01:24:19;;;;;;;;;5.25;5.25;;;;;-143.47;100.00;63865.75;2096602;28;46621;-61
2023/08/11 01:25:20;;;;;;;;;4.00;3.00;;;;;-143.47;100.00;63865.75;2097076;28;46478;-61
2023/08/11 01:26:22;;;;;;;;;4.50;4.50;;;;;-143.47;100.00;63865.75;2096771;28;46538;-62
2023/08/11 01:27:22;;;;;;;;;2.25;2.25;;;;;-143.47;100.00;63865.75;2096976;28;46221;-61
2023/08/11 01:28:22;;;;;;;;;4.67;4.67;;;;;-143.47;100.00;63865.75;2099041;28;46422;-61
2023/08/11 01:29:24;;;;;;;;;5.33;5.33;;;;;-143.47;100.00;63865.75;2104885;27;46004;-61
2023/08/11 01:30:26;;;;;;;;;6.75;6.75;;;;;-143.47;100.00;63865.75;2101729;27;46254;-61
2023/08/11 01:31:26;;;;;;;;;8.25;6.75;;;;;-143.47;100.00;63865.75;2104194;27;46335;-60
2023/08/11 01:32:26;;;;;;;;;8.00;8.00;;;;;-143.47;100.00;63865.75;2104541;28;45793;-60
2023/08/11 01:33:27;;;;;;;;;6.00;6.00;;;;;-143.47;100.00;63865.75;2095474;28;46695;-60
2023/08/11 01:34:27;;;;;;;;;8.25;8.25;;;;;-143.47;100.00;63865.75;2104385;28;46181;-60
2023/08/11 01:35:27;;;;;;;;;20.00;19.50;;;;;-143.47;100.00;63865.75;2104175;28;46636;-61
2023/08/11 01:36:28;;;;;;;;;13.75;12.50;;;;;-143.47;100.00;63865.75;2104822;27;46639;-60
2023/08/11 01:37:28;;;;;;;;;61.75;50.50;;;;;-143.47;100.00;63865.75;2103967;28;46392;-61
2023/08/11 01:38:29;;;;;;;;;93.33;88.00;;;;;-143.47;100.00;63865.75;2104239;28;46461;-61
2023/08/11 01:39:30;;;;;;;;;47.50;39.00;;;;;-143.47;100.00;63865.75;2104622;27;47125;-61
2023/08/11 01:40:31;;;;;;;;;38.60;34.20;;;;;-143.47;100.00;63865.75;2104818;27;46669;-60
2023/08/11 01:41:32;;;;;;;;;90.50;87.00;;;;;-143.47;100.00;63865.75;2104693;27;46570;-61
2023/08/11 01:42:32;;;;;;;;;102.00;99.00;;;;;-143.47;100.00;63865.75;2104300;27;46510;-60
2023/08/11 01:43:34;;;;;;;;;172.75;165.50;;;;;-143.47;100.00;63865.75;2104940;27;46701;-60
2023/08/11 01:44:34;;;;;;;;;72.00;66.75;;;;;-143.47;100.00;63865.75;2101695;27;46698;-59
2023/08/11 01:45:35;;;;;;;;;161.75;157.25;;;;;-143.47;100.00;63865.75;2096002;28;46229;-60
2023/08/11 01:46:35;;;;;;;;;100.33;91.33;;;;;-143.47;100.00;63865.75;2102499;28;46273;-61
2023/08/11 01:47:37;;;;;;;;;105.33;102.00;;;;;-143.47;100.00;63865.75;2102732;28;45126;-60
2023/08/11 01:48:38;;;;;;;;;117.75;109.25;;;;;-143.47;100.00;63865.75;2104853;27;46292;-60
2023/08/11 01:49:39;;;;;;;;;159.75;152.50;;;;;-143.47;100.00;63865.75;2104465;27;46925;-61
2023/08/11 01:50:41;;;;;;;;;116.33;114.00;;;;;-143.47;100.00;63865.75;2100816;27;46437;-58
2023/08/11 01:51:42;;;;;;;;;81.75;76.75;;;;;-143.47;100.00;63865.75;2096136;28;46419;-60
2023/08/11 01:52:45;;;;;;;;;155.75;147.75;;;;;-143.47;100.00;63865.75;2098873;28;46436;-60
2023/08/11 01:53:46;;;;;;;;;153.50;147.75;;;;;-143.47;100.00;63865.75;2100853;28;46603;-59
2023/08/11 01:54:46;;;;;;;;;139.50;135.00;;;;;-143.47;100.00;63865.75;2103989;28;46776;-60
2023/08/11 01:55:47;;;;;;;;;51.75;41.75;;;;;-143.47;100.00;63865.75;2102520;27;46247;-59
2023/08/11 01:56:48;;;;;;;;;88.67;82.00;;;;;-143.47;100.00;63865.75;2096416;28;46769;-61
2023/08/11 01:57:49;;;;;;;;;87.00;84.00;;;;;-143.47;100.00;63865.75;2100172;28;46174;-60
2023/08/11 01:58:49;;;;;;;;;97.50;91.75;;;;;-143.47;100.00;63865.75;2099694;27;46628;-61
2023/08/11 01:59:50;;;;;;;;;52.20;41.00;;;;;-143.47;100.00;63865.75;2098996;28;46143;-60
2023/08/11 02:00:50;;;;;;;;;163.00;152.50;;;;;-143.47;100.00;63865.75;2098933;28;46330;-61
2023/08/11 02:01:51;;;;;;;;;46.50;38.00;;;;;-143.47;100.00;63865.75;2096785;27;46246;-61
2023/08/11 02:02:52;;;;;;;;;136.33;134.00;;;;;-143.47;100.00;63865.75;2099561;28;46675;-61
2023/08/11 02:03:52;;;;;;;;;61.50;49.50;;;;;-143.47;100.00;63865.75;2096900;28;46278;-60
2023/08/11 02:04:53;;;;;;;;;53.75;43.00;;;;;-143.47;100.00;63865.75;2100401;27;46450;-61
2023/08/11 02:05:55;;;;;;;;;65.25;55.25;;;;;-143.47;100.00;63865.75;2102140;27;46265;-61
2023/08/11 02:06:55;;;;;;;;;29.60;28.60;;;;;-143.47;100.00;63865.75;2097822;28;46737;-61
2023/08/11 02:07:56;;;;;;;;;47.25;40.25;;;;;-143.47;100.00;63865.75;2100744;28;46475;-61
2023/08/11 02:08:56;;;;;;;;;72.75;66.75;;;;;-143.47;100.00;63865.75;2100823;28;46354;-61
2023/08/11 02:09:57;;;;;;;;;96.50;92.75;;;;;-143.47;100.00;63865.75;2097592;28;46452;-59
2023/08/11 02:10:57;;;;;;;;;62.75;49.50;;;;;-143.47;100.00;63865.75;2097650;28;46596;-60
2023/08/11 02:11:58;;;;;;;;;47.25;39.00;;;;;-143.47;100.00;63865.75;2097668;28;46287;-61
2023/08/11 02:12:58;;;;;;;;;59.75;48.25;;;;;-143.47;100.00;63865.75;2103871;28;46748;-61
2023/08/11 02:13:58;;;;;;;;;30.75;28.00;;;;;-143.47;100.00;63865.75;2104446;27;46746;-61
2023/08/11 02:14:59;;;;;;;;;69.25;62.50;;;;;-143.47;100.00;63865.75;2097900;28;46560;-60
2023/08/11 02:16:00;;;;;;;;;68.00;56.60;;;;;-143.47;100.00;63865.75;2097497;28;45952;-61
2023/08/11 02:17:00;;;;;;;;;114.33;106.67;;;;;-143.47;100.00;63865.75;2100808;28;46223;-61
2023/08/11 02:18:00;;;;;;;;;53.75;43.75;;;;;-143.47;100.00;63865.75;2103329;27;46218;-61
2023/08/11 02:19:01;;;;;;;;;39.75;34.50;;;;;-143.47;100.00;63865.75;2102467;27;46381;-58
2023/08/11 02:20:13;;;;;;;;;70.00;60.25;;;;;-143.47;100.00;63865.75;2097329;28;46705;-61
2023/08/11 02:21:13;;;;;;;;;68.75;62.00;;;;;-143.47;100.00;63865.75;2097662;28;46246;-61
2023/08/11 02:22:14;;;;;;;;;36.00;30.75;;;;;-143.47;100.00;63865.75;2097532;28;46340;-59
2023/08/11 02:23:14;;;;;;;;;44.50;38.25;;;;;-143.47;100.00;63865.75;2101966;28;46374;-61
2023/08/11 02:24:14;;;;;;;;;17.75;17.75;;;;;-143.47;100.00;63865.75;2098885;28;46610;-60
2023/08/11 02:25:15;;;;;;;;;16.75;14.25;;;;;-143.47;100.00;63865.75;2097560;28;46663;-61
2023/08/11 02:26:15;;;;;;;;;26.50;26.50;;;;;-143.47;100.00;63865.75;2097241;28;46595;-61
2023/08/11 02:27:17;;;;;;;;;14.50;14.50;;;;;-143.47;100.00;63865.75;2099340;28;46119;-61
2023/08/11 02:28:17;;;;;;;;;27.80;26.40;;;;;-143.47;100.00;63865.75;2098578;28;46604;-61
2023/08/11 02:29:17;;;;;;;;;15.50;15.50;;;;;-143.47;100.00;63865.75;2097264;27;46166;-61
2023/08/11 02:30:18;;;;;;;;;48.50;40.75;;;;;-143.47;100.00;63865.75;2098723;28;46196;-61
2023/08/11 02:31:18;;;;;;;;;26.00;24.25;;;;;-143.47;100.00;63865.75;2088414;28;46975;-60
2023/08/11 02:32:19;;;;;;;;;55.50;43.75;;;;;-143.47;100.00;63865.75;2089995;28;46655;-61
2023/08/11 02:33:20;;;;;;;;;33.25;30.75;;;;;-143.47;100.00;63865.75;2098895;28;46515;-60
2023/08/11 02:34:21;;;;;;;;;23.20;22.00;;;;;-143.47;100.00;63865.75;2097197;28;46973;-61
2023/08/11 02:35:22;;;;;;;;;21.00;19.25;;;;;-143.47;100.00;63865.75;2098739;28;46854;-61
2023/08/11 02:36:23;;;;;;;;;16.60;15.20;;;;;-143.47;100.00;63865.75;2098357;28;47015;-61
2023/08/11 02:37:23;;;;;;;;;26.00;26.00;;;;;-143.47;100.00;63865.75;2097350;28;46841;-60
2023/08/11 02:38:23;;;;;;;;;8.75;8.75;;;;;-143.47;100.00;63865.75;2096963;28;46408;-61
2023/08/11 02:39:24;;;;;;;;;10.75;10.75;;;;;-143.47;100.00;63865.75;2097658;28;46286;-61
2023/08/11 02:40:25;;;;;;;;;10.00;9.25;;;;;-143.47;100.00;63865.75;2098606;28;46483;-59
2023/08/11 02:41:25;;;;;;;;;6.75;6.75;;;;;-143.47;100.00;63865.75;2092838;28;46427;-59
2023/08/11 02:42:26;;;;;;;;;8.25;7.00;;;;;-143.47;100.00;63865.75;2088177;28;46387;-61
2023/08/11 02:43:27;;;;;;;;;6.00;6.00;;;;;-143.47;100.00;63865.75;2097173;28;46114;-61
2023/08/11 02:44:27;;;;;;;;;12.20;11.80;;;;;-143.47;100.00;63865.75;2098356;28;46163;-61
2023/08/11 02:45:27;;;;;;;;;8.50;8.50;;;;;-143.47;100.00;63865.75;2097708;28;46616;-61
2023/08/11 02:46:28;;;;;;;;;10.50;10.50;;;;;-143.47;100.00;63865.75;2097789;28;46574;-60
2023/08/11 02:47:28;;;;;;;;;9.25;9.25;;;;;-143.47;100.00;63865.75;2104569;28;46811;-61
2023/08/11 02:48:28;;;;;;;;;7.25;7.25;;;;;-143.47;100.00;63865.75;2095743;28;46520;-61
2023/08/11 02:49:28;;;;;;;;;6.00;5.75;;;;;-143.47;100.00;63865.75;2097165;28;46377;-61
2023/08/11 02:50:29;;;;;;;;;6.50;6.50;;;;;-143.47;100.00;63865.75;2097205;28;46194;-60
2023/08/11 02:51:29;;;;;;;;;10.00;10.00;;;;;-143.47;100.00;63865.75;2099089;28;46636;-61
2023/08/11 02:52:30;;;;;;;;;8.75;8.75;;;;;-143.47;100.00;63865.75;2099219;28;46268;-61
2023/08/11 02:53:31;;;;;;;;;7.25;7.25;;;;;-143.47;100.00;63865.75;2105150;28;46236;-61
2023/08/11 02:54:31;;;;;;;;;7.60;7.60;;;;;-143.47;100.00;63865.75;2104836;28;46157;-60
2023/08/11 02:55:32;;;;;;;;;5.50;5.50;;;;;-143.47;100.00;63865.75;2097537;28;46114;-59
2023/08/11 02:56:32;;;;;;;;;6.00;6.00;;;;;-143.47;100.00;63865.75;2100597;27;46042;-61
2023/08/11 02:57:33;;;;;;;;;8.00;8.00;;;;;-143.47;100.00;63865.75;2104095;27;46248;-61
2023/08/11 02:58:33;;;;;;;;;4.00;4.00;;;;;-143.47;100.00;63865.75;2097466;28;46500;-61
2023/08/11 02:59:34;;;;;;;;;7.00;6.67;;;;;-143.47;100.00;63865.75;2097200;28;46589;-61
2023/08/11 03:00:34;;;;;;;;;7.00;7.00;;;;;-143.47;100.00;63865.75;2097178;28;46727;-61
2023/08/11 03:01:35;;;;;;;;;6.33;6.33;;;;;-143.47;100.00;63865.75;2098701;28;46301;-60
2023/08/11 03:02:35;;;;;;;;;6.00;6.00;;;;;-143.47;100.00;63865.75;2097927;28;46207;-61
2023/08/11 03:03:36;;;;;;;;;4.67;4.67;;;;;-143.47;100.00;63865.75;2097220;28;46744;-60
2023/08/11 03:04:36;;;;;;;;;6.67;6.67;;;;;-143.47;100.00;63865.75;2098259;28;46627;-61
2023/08/11 03:05:36;;;;;;;;;6.67;5.67;;;;;-143.47;100.00;63865.75;2097973;28;46461;-61
2023/08/11 03:06:37;;;;;;;;;5.67;5.67;;;;;-143.47;100.00;63865.75;2098063;28;46527;-60
2023/08/11 03:07:40;;;;;;;;;4.67;4.67;;;;;-143.47;100.00;63865.75;2098421;28;46463;-60
2023/08/11 03:08:41;;;;;;;;;7.80;7.80;;;;;-143.47;100.00;63865.75;2097407;28;46505;-59
2023/08/11 03:09:41;;;;;;;;;5.50;5.00;;;;;-143.47;100.00;63865.75;2098303;28;46243;-60
2023/08/11 03:10:42;;;;;;;;;8.00;8.00;;;;;-143.47;100.00;63865.75;2095513;28;45740;-60
2023/08/11 03:11:42;;;;;;;;;8.00;8.00;;;;;-143.47;100.00;63865.75;2095514;28;46709;-61
2023/08/11 03:12:43;;;;;;;;;6.33;6.33;;;;;-143.47;100.00;63865.75;2095057;28;46934;-60
2023/08/11 03:13:43;;;;;;;;;7.00;7.00;;;;;-143.47;100.00;63865.75;2105723;27;46329;-61
2023/08/11 03:14:43;;;;;;;;;7.00;6.00;;;;;-143.47;100.00;63865.75;2098170;27;46530;-61
2023/08/11 03:15:44;;;;;;;;;5.00;5.00;;;;;-143.47;100.00;63865.75;2098859;28;46347;-61
2023/08/11 03:16:44;;;;;;;;;8.00;7.00;;;;;-143.47;100.00;63865.75;2096541;28;46167;-61
2023/08/11 03:17:45;;;;;;;;;5.33;5.33;;;;;-143.47;100.00;63865.75;2098155;28;46139;-61
2023/08/11 03:18:45;;;;;;;;;9.00;8.00;;;;;-143.47;100.00;63865.75;2098640;28;46736;-61
2023/08/11 03:19:45;;;;;;;;;8.00;7.00;;;;;-143.47;100.00;63865.75;2096855;28;46116;-61
2023/08/11 03:20:46;;;;;;;;;8.50;7.25;;;;;-143.47;100.00;63865.75;2102294;28;46221;-61
2023/08/11 03:21:46;;;;;;;;;7.25;7.25;;;;;-143.47;100.00;63865.75;2103745;27;46720;-61
2023/08/11 03:22:46;;;;;;;;;8.00;8.00;;;;;-143.47;100.00;63865.75;2098127;28;46185;-61
2023/08/11 03:23:47;;;;;;;;;8.00;7.25;;;;;-143.47;100.00;63865.75;2097780;28;46037;-60
2023/08/11 03:24:47;;;;;;;;;6.67;6.67;;;;;-143.47;100.00;63865.75;2097081;28;46157;-61
2023/08/11 03:25:48;;;;;;;;;7.50;7.50;;;;;-143.47;100.00;63865.75;2097317;28;46745;-61
2023/08/11 03:26:48;;;;;;;;;6.00;6.00;;;;;-143.47;100.00;63865.75;2097248;28;46928;-61
2023/08/11 03:27:50;;;;;;;;;6.50;6.50;;;;;-143.47;100.00;63865.75;2097239;28;46771;-60
2023/08/11 03:28:50;;;;;;;;;6.80;6.80;;;;;-143.47;100.00;63865.75;2096998;28;47065;-61
2023/08/11 03:29:50;;;;;;;;;6.75;6.75;;;;;-143.47;100.00;63865.75;2105618;27;46661;-60
2023/08/11 03:30:51;;;;;;;;;7.25;7.25;;;;;-143.47;100.00;63865.75;2096001;28;46389;-61
2023/08/11 03:31:51;;;;;;;;;7.00;6.50;;;;;-143.47;100.00;63865.75;2093675;28;46646;-63
2023/08/11 03:32:51;;;;;;;;;5.50;5.50;;;;;-143.47;100.00;63865.75;2096357;28;46509;-61
2023/08/11 03:33:52;;;;;;;;;6.00;6.00;;;;;-143.47;100.00;63865.75;2096605;28;46766;-61
2023/08/11 03:34:53;;;;;;;;;7.75;6.00;;;;;-143.47;100.00;63865.75;2096813;28;46445;-61
2023/08/11 03:35:53;;;;;;;;;6.50;6.50;;;;;-143.47;100.00;63865.75;2097210;28;46291;-62
2023/08/11 03:36:53;;;;;;;;;8.00;8.00;;;;;-143.47;100.00;63865.75;2097301;28;46187;-62
2023/08/11 03:37:53;;;;;;;;;6.00;6.00;;;;;-143.47;100.00;63865.75;2096239;28;46011;-62
2023/08/11 03:38:54;;;;;;;;;5.00;5.00;;;;;-143.47;100.00;63865.75;2096837;28;46641;-61
2023/08/11 03:39:54;;;;;;;;;6.00;6.00;;;;;-143.47;100.00;63865.75;2097169;28;46420;-62
2023/08/11 03:40:54;;;;;;;;;7.25;6.75;;;;;-143.47;100.00;63865.75;2097212;28;46673;-62
2023/08/11 03:41:55;;;;;;;;;7.00;7.00;;;;;-143.47;100.00;63865.75;2097180;28;46186;-61
2023/08/11 03:42:55;;;;;;;;;9.50;7.75;;;;;-143.47;100.00;63865.75;2097490;28;46711;-61
2023/08/11 03:43:55;;;;;;;;;8.00;8.00;;;;;-143.47;100.00;63865.75;2097058;28;46299;-61
2023/08/11 03:44:56;;;;;;;;;8.00;8.00;;;;;-143.47;100.00;63865.75;2097300;28;46662;-60
2023/08/11 03:45:56;;;;;;;;;8.00;8.00;;;;;-143.47;100.00;63865.75;2103031;28;46697;-61
2023/08/11 03:46:56;;;;;;;;;8.00;8.00;;;;;-143.47;100.00;63865.75;2102671;27;46235;-61
2023/08/11 03:47:57;;;;;;;;;6.25;6.25;;;;;-143.47;100.00;63865.75;2103334;27;45473;-60
2023/08/11 03:48:57;;;;;;;;;8.25;7.50;;;;;-143.47;100.00;63865.75;2096453;28;46196;-60
2023/08/11 03:49:57;;;;;;;;;10.25;9.00;;;;;-143.47;100.00;63865.75;2096473;28;46211;-61
2023/08/11 03:50:59;;;;;;;;;8.25;8.25;;;;;-143.47;100.00;63865.75;2097480;28;46560;-61
2023/08/11 03:52:00;;;;;;;;;9.40;7.00;;;;;-143.47;100.00;63865.75;2105553;27;46653;-61
2023/08/11 03:53:01;;;;;;;;;7.50;7.00;;;;;-143.47;100.00;63865.75;2105482;27;46642;-61
2023/08/11 03:54:04;;;;;;;;;6.60;6.60;;;;;-143.47;100.00;63865.75;2105475;27;46559;-59
2023/08/11 03:55:09;;;;;;;;;9.40;7.20;;;;;-143.47;100.00;63865.75;2087503;28;46359;-61
2023/08/11 03:56:09;;;;;;;;;6.60;6.60;;;;;-143.47;100.00;63865.75;2088189;28;46465;-61
2023/08/11 03:57:10;;;;;;;;;6.00;6.00;;;;;-143.47;100.00;63865.75;2097243;28;47214;-60
2023/08/11 03:58:12;;;;;;;;;6.50;6.50;;;;;-143.47;100.00;63865.75;2103836;28;46191;-60
2023/08/11 03:59:13;;;;;;;;;7.75;7.00;;;;;-143.47;100.00;63865.75;2092202;28;46954;-60
2023/08/11 04:00:15;;;;;;;;;9.00;7.00;;;;;-143.47;100.00;63865.75;2097267;28;46304;-61
2023/08/11 04:01:15;;;;;;;;;8.00;7.80;;;;;-143.47;100.00;63865.75;2100020;28;46482;-60
2023/08/11 04:02:16;;;;;;;;;8.50;7.00;;;;;-143.47;100.00;63865.75;2094887;28;46734;-61
2023/08/11 04:03:16;;;;;;;;;6.40;6.40;;;;;-143.47;100.00;63865.75;2096389;28;46937;-60
2023/08/11 04:04:17;;;;;;;;;8.25;7.75;;;;;-143.47;100.00;63865.75;2096892;28;46469;-61
2023/08/11 04:05:17;;;;;;;;;7.00;7.00;;;;;-143.47;100.00;63865.75;2096796;28;45113;-60
2023/08/11 04:06:18;;;;;;;;;8.00;7.00;;;;;-143.47;100.00;63865.75;2099796;28;46310;-61
2023/08/11 04:07:18;;;;;;;;;7.00;7.00;;;;;-143.47;100.00;63865.75;2099030;28;46089;-60
2023/08/11 04:08:19;;;;;;;;;9.00;9.00;;;;;-143.47;100.00;63865.75;2104618;28;46178;-61
2023/08/11 04:09:19;;;;;;;;;8.00;7.80;;;;;-143.47;100.00;63865.75;2102470;27;46538;-61
2023/08/11 04:10:20;;;;;;;;;8.00;8.00;;;;;-143.47;100.00;63865.75;2097966;28;46231;-60
2023/08/11 04:11:20;;;;;;;;;6.00;6.00;;;;;-143.47;100.00;63865.75;2098785;27;47573;-60
2023/08/11 04:12:20;;;;;;;;;5.00;5.00;;;;;-143.47;100.00;63865.75;2100768;28;46660;-59
2023/08/11 04:13:21;;;;;;;;;6.75;6.75;;;;;-143.47;100.00;63865.75;2105570;27;46263;-59
2023/08/11 04:14:21;;;;;;;;;8.75;8.00;;;;;-143.47;100.00;63865.75;2101166;27;46554;-61
2023/08/11 04:15:22;;;;;;;;;8.75;8.75;;;;;-143.47;100.00;63865.75;2099326;28;45444;-60
2023/08/11 04:16:22;;;;;;;;;8.50;8.50;;;;;-143.47;100.00;63865.75;2097351;27;46305;-60
2023/08/11 04:17:22;;;;;;;;;7.00;7.00;;;;;-143.47;100.00;63865.75;2103005;28;46603;-60
2023/08/11 04:18:23;;;;;;;;;8.00;8.00;;;;;-143.47;100.00;63865.75;2105187;27;47236;-59
2023/08/11 04:19:23;;;;;;;;;7.25;6.75;;;;;-143.47;100.00;63865.75;2096969;27;46278;-59
2023/08/11 04:20:23;;;;;;;;;6.00;6.00;;;;;-143.47;100.00;63865.75;2099929;28;46876;-60
2023/08/11 04:21:24;;;;;;;;;8.00;8.00;;;;;-143.47;100.00;63865.75;2096659;28;46615;-60
2023/08/11 04:22:24;;;;;;;;;7.00;7.00;;;;;-143.47;100.00;63865.75;2102438;28;46614;-62
2023/08/11 04:23:25;;;;;;;;;7.50;7.00;;;;;-143.47;100.00;63865.75;2105171;27;46243;-61
2023/08/11 04:24:25;;;;;;;;;5.50;5.50;;;;;-143.47;100.00;63865.75;2097401;27;46676;-60
2023/08/11 04:25:25;;;;;;;;;5.50;5.50;;;;;-143.47;100.00;63865.75;2099529;28;46489;-61
2023/08/11 04:26:26;;;;;;;;;8.00;8.00;;;;;-143.47;100.00;63865.75;2097766;28;46587;-61
2023/08/11 04:27:26;;;;;;;;;6.25;6.25;;;;;-143.47;100.00;63865.75;2099022;27;46122;-60
2023/08/11 04:28:26;;;;;;;;;7.00;7.00;;;;;-143.47;100.00;63865.75;2098618;28;46558;-60
2023/08/11 04:29:27;;;;;;;;;8.00;8.00;;;;;-143.47;100.00;63865.75;2096169;28;46975;-60
2023/08/11 04:30:27;;;;;;;;;8.00;8.00;;;;;-143.47;100.00;63865.75;2098291;28;46724;-60
2023/08/11 04:31:27;;;;;;;;;8.50;8.50;;;;;-143.47;100.00;63865.75;2105195;28;46337;-61
2023/08/11 04:32:28;;;;;;;;;8.00;7.25;;;;;-143.47;100.00;63865.75;2096898;27;46359;-61
2023/08/11 04:33:29;;;;;;;;;10.25;9.00;;;;;-143.47;100.00;63865.75;2099658;28;46491;-61
2023/08/11 04:34:33;;;;;;;;;6.40;6.40;;;;;-143.47;100.00;63865.75;2096638;28;46403;-61
2023/08/11 04:35:33;;;;;;;;;6.40;6.00;;;;;-143.47;100.00;63865.75;2096047;28;46709;-61
2023/08/11 04:36:33;;;;;;;;;7.50;7.50;;;;;-143.47;100.00;63865.75;2096722;28;46566;-61